Time;durP1;ratioP1;P1;durP2;ratioP2;P2;SDS_P1;SDS_P2;PMS_P1;PMS_P2;Temp;Humidity;BMP_temperature;BMP_pressure;BME280_temperature;BME280_humidity;BME280_pressure;Samples;Min_cycle;Max_cycle;Signal;HPM_P1;HPM_P2
2022/01/05 00:00:40;;;;;;;23.67;11.55;;;;;;;;;;5060233;28;20025;-72
2022/01/05 00:03:06;;;;;;;23.00;12.40;;;;;;;;;;5059750;28;20104;-72
2022/01/05 00:05:32;;;;;;;22.40;11.68;;;;;;;;;;5060025;28;20453;-72
2022/01/05 00:07:58;;;;;;;20.08;11.60;;;;;;;;;;5042153;28;20434;-72
2022/01/05 00:10:25;;;;;;;23.58;11.93;;;;;;;;;;5042381;28;20311;-72
2022/01/05 00:12:51;;;;;;;23.23;11.05;;;;;;;;;;5060129;28;20371;-72
2022/01/05 00:15:17;;;;;;;18.88;11.43;;;;;;;;;;5042129;28;20339;-72
2022/01/05 00:17:43;;;;;;;22.33;13.13;;;;;;;;;;5059403;28;20326;-72
2022/01/05 00:20:09;;;;;;;21.70;11.48;;;;;;;;;;5042177;28;20021;-73
2022/01/05 00:22:35;;;;;;;19.90;11.40;;;;;;;;;;5042074;28;20024;-73
2022/01/05 00:25:02;;;;;;;18.20;10.27;;;;;;;;;;5042158;28;20052;-72
2022/01/05 00:27:28;;;;;;;18.40;11.40;;;;;;;;;;5059394;28;20025;-72
2022/01/05 00:29:54;;;;;;;14.77;9.60;;;;;;;;;;5059115;28;20024;-72
2022/01/05 00:32:19;;;;;;;23.95;12.30;;;;;;;;;;5059211;28;20070;-72
2022/01/05 00:34:45;;;;;;;20.65;12.25;;;;;;;;;;5059490;28;20025;-72
2022/01/05 00:37:11;;;;;;;21.88;12.52;;;;;;;;;;5059673;28;20243;-72
2022/01/05 00:39:37;;;;;;;24.92;14.13;;;;;;;;;;5025658;28;20369;-72
2022/01/05 00:42:04;;;;;;;24.15;14.07;;;;;;;;;;5024885;28;20029;-72
2022/01/05 00:44:29;;;;;;;22.75;13.95;;;;;;;;;;5059194;28;20335;-72
2022/01/05 00:46:55;;;;;;;21.40;13.88;;;;;;;;;;5041299;28;20031;-72
2022/01/05 00:49:22;;;;;;;22.88;13.65;;;;;;;;;;5059399;28;20445;-72
2022/01/05 00:51:48;;;;;;;24.90;15.23;;;;;;;;;;5041829;28;20036;-72
2022/01/05 00:54:14;;;;;;;27.98;15.52;;;;;;;;;;5058893;28;20044;-72
2022/01/05 00:56:40;;;;;;;20.40;15.02;;;;;;;;;;5059302;28;20029;-72
2022/01/05 00:59:06;;;;;;;24.25;16.10;;;;;;;;;;5041279;28;20036;-72
2022/01/05 01:01:32;;;;;;;25.33;14.55;;;;;;;;;;5039974;28;20335;-72
2022/01/05 01:03:58;;;;;;;23.90;16.13;;;;;;;;;;5058608;28;20023;-72
2022/01/05 01:06:25;;;;;;;24.13;15.18;;;;;;;;;;5059088;28;20025;-72
2022/01/05 01:08:52;;;;;;;24.33;14.52;;;;;;;;;;5059028;28;20021;-72
2022/01/05 01:11:18;;;;;;;25.75;15.90;;;;;;;;;;5057971;28;20044;-72
2022/01/05 01:13:44;;;;;;;22.13;14.82;;;;;;;;;;5024830;28;20025;-72
2022/01/05 01:16:11;;;;;;;29.80;15.80;;;;;;;;;;5058313;28;20027;-72
2022/01/05 01:18:37;;;;;;;27.67;16.48;;;;;;;;;;5040947;28;20020;-72
2022/01/05 01:21:03;;;;;;;27.60;17.45;;;;;;;;;;5024516;28;20151;-72
2022/01/05 01:23:29;;;;;;;33.25;17.65;;;;;;;;;;5040375;28;20013;-72
2022/01/05 01:25:55;;;;;;;25.30;14.68;;;;;;;;;;5040725;28;20031;-72
2022/01/05 01:28:23;;;;;;;24.30;15.10;;;;;;;;;;5024239;28;20480;-72
2022/01/05 01:30:49;;;;;;;24.27;13.45;;;;;;;;;;5057996;28;20495;-72
2022/01/05 01:33:15;;;;;;;26.00;15.30;;;;;;;;;;5058490;28;20374;-72
2022/01/05 01:35:41;;;;;;;27.85;16.65;;;;;;;;;;5040781;28;20020;-72
2022/01/05 01:38:08;;;;;;;27.58;16.35;;;;;;;;;;5058106;28;20028;-72
2022/01/05 01:40:35;;;;;;;26.63;15.48;;;;;;;;;;5024234;28;20028;-72
2022/01/05 01:43:01;;;;;;;23.98;16.42;;;;;;;;;;5040720;28;20027;-72
2022/01/05 01:45:27;;;;;;;34.72;18.98;;;;;;;;;;5040591;28;20423;-72
2022/01/05 01:47:53;;;;;;;28.50;15.23;;;;;;;;;;5039946;28;20469;-72
2022/01/05 01:50:19;;;;;;;24.67;13.38;;;;;;;;;;5040361;28;20062;-72
2022/01/05 01:52:45;;;;;;;21.63;13.48;;;;;;;;;;5039533;28;20017;-72
2022/01/05 01:55:12;;;;;;;18.40;12.02;;;;;;;;;;5057575;28;20021;-72
2022/01/05 01:57:41;;;;;;;25.27;12.40;;;;;;;;;;5040231;28;20079;-72
2022/01/05 02:00:07;;;;;;;20.67;11.80;;;;;;;;;;5039857;28;20131;-72
2022/01/05 02:02:33;;;;;;;17.77;11.60;;;;;;;;;;5023312;28;20025;-72
2022/01/05 02:04:59;;;;;;;21.08;12.23;;;;;;;;;;5057112;28;20024;-72
2022/01/05 02:07:26;;;;;;;28.98;16.83;;;;;;;;;;5039309;28;20363;-72
2022/01/05 02:09:52;;;;;;;21.27;12.13;;;;;;;;;;5056297;28;20078;-72
2022/01/05 02:12:22;;;;;;;17.35;10.43;;;;;;;;;;5056530;28;20049;-73
2022/01/05 02:14:49;;;;;;;18.70;10.00;;;;;;;;;;5039286;28;20020;-72
2022/01/05 02:17:19;;;;;;;16.73;9.02;;;;;;;;;;5023314;28;20029;-72
2022/01/05 02:19:45;;;;;;;20.07;9.80;;;;;;;;;;5023361;28;20330;-73
2022/01/05 02:22:11;;;;;;;18.92;10.68;;;;;;;;;;5056690;28;20028;-72
2022/01/05 02:24:37;;;;;;;17.52;10.68;;;;;;;;;;5022665;28;20473;-72
2022/01/05 02:27:03;;;;;;;14.50;9.60;;;;;;;;;;5056362;28;20020;-72
2022/01/05 02:29:29;;;;;;;20.65;11.07;;;;;;;;;;5038762;28;20478;-72
2022/01/05 02:31:57;;;;;;;41.05;13.25;;;;;;;;;;5022569;28;20032;-73
2022/01/05 02:34:23;;;;;;;25.65;15.02;;;;;;;;;;5021525;28;20017;-72
2022/01/05 02:36:50;;;;;;;26.60;16.25;;;;;;;;;;5021988;28;20028;-74
2022/01/05 02:39:16;;;;;;;37.40;18.50;;;;;;;;;;5038496;28;20028;-72
2022/01/05 02:41:42;;;;;;;31.20;15.23;;;;;;;;;;5038134;28;20033;-72
2022/01/05 02:44:08;;;;;;;26.27;15.45;;;;;;;;;;5022516;28;20025;-72
2022/01/05 02:46:34;;;;;;;31.95;18.48;;;;;;;;;;5055726;28;20082;-72
2022/01/05 02:49:03;;;;;;;58.67;34.40;;;;;;;;;;5022371;28;20334;-72
2022/01/05 02:51:29;;;;;;;31.20;18.20;;;;;;;;;;5038372;28;20490;-72
2022/01/05 02:53:55;;;;;;;23.15;13.60;;;;;;;;;;5055619;28;20021;-73
2022/01/05 02:56:21;;;;;;;21.17;12.45;;;;;;;;;;5037441;28;20439;-72
2022/01/05 02:58:47;;;;;;;24.50;14.55;;;;;;;;;;5055348;28;20032;-73
2022/01/05 03:01:13;;;;;;;26.02;13.30;;;;;;;;;;5020853;28;20044;-73
2022/01/05 03:03:40;;;;;;;19.02;12.55;;;;;;;;;;5054903;28;20332;-73
2022/01/05 03:06:07;;;;;;;23.63;12.68;;;;;;;;;;5020008;28;20066;-73
2022/01/05 03:08:38;;;;;;;23.52;13.63;;;;;;;;;;5020628;28;20021;-73
2022/01/05 03:11:12;;;;;;;24.17;13.77;;;;;;;;;;5038482;28;20029;-73
2022/01/05 03:13:50;;;;;;;19.95;13.25;;;;;;;;;;5035222;28;20021;-73
2022/01/05 03:16:17;;;;;;;23.10;14.48;;;;;;;;;;5019736;28;20029;-73
2022/01/05 03:18:44;;;;;;;24.67;13.57;;;;;;;;;;5019095;28;20067;-73
2022/01/05 03:21:11;;;;;;;20.17;14.68;;;;;;;;;;5036667;28;20308;-73
2022/01/05 03:23:38;;;;;;;25.52;14.10;;;;;;;;;;5036433;28;20021;-73
2022/01/05 03:26:04;;;;;;;17.95;10.82;;;;;;;;;;5040209;28;20078;-73
2022/01/05 03:28:31;;;;;;;16.73;11.95;;;;;;;;;;5058375;28;20423;-73
2022/01/05 03:30:58;;;;;;;16.35;9.65;;;;;;;;;;5058446;28;20040;-73
2022/01/05 03:33:25;;;;;;;20.35;12.25;;;;;;;;;;5040715;28;20403;-73
2022/01/05 03:35:55;;;;;;;18.08;11.15;;;;;;;;;;5058209;28;20024;-73
2022/01/05 03:38:28;;;;;;;20.33;11.00;;;;;;;;;;5040184;28;20075;-74
2022/01/05 03:40:55;;;;;;;18.20;9.75;;;;;;;;;;5040403;28;20033;-73
2022/01/05 03:43:22;;;;;;;22.23;12.57;;;;;;;;;;5023842;28;20067;-74
2022/01/05 03:45:50;;;;;;;22.33;13.93;;;;;;;;;;5040344;28;20028;-74
2022/01/05 03:48:20;;;;;;;24.42;14.35;;;;;;;;;;5040227;28;20020;-73
2022/01/05 03:50:47;;;;;;;23.17;13.90;;;;;;;;;;5023486;28;20028;-73
2022/01/05 03:53:14;;;;;;;26.13;14.80;;;;;;;;;;5023208;28;20258;-73
2022/01/05 03:55:41;;;;;;;31.85;18.35;;;;;;;;;;5022279;28;20453;-73
2022/01/05 03:58:08;;;;;;;32.85;18.55;;;;;;;;;;5039343;28;20037;-73
2022/01/05 04:00:36;;;;;;;32.35;18.38;;;;;;;;;;5022860;28;20036;-74
2022/01/05 04:03:03;;;;;;;30.95;19.38;;;;;;;;;;5040306;28;20119;-73
2022/01/05 04:05:30;;;;;;;32.10;20.50;;;;;;;;;;5057200;28;20012;-74
2022/01/05 04:07:59;;;;;;;37.90;22.02;;;;;;;;;;5038094;28;20017;-73
2022/01/05 04:10:26;;;;;;;39.47;23.90;;;;;;;;;;5020870;28;20056;-73
2022/01/05 04:12:54;;;;;;;35.35;23.85;;;;;;;;;;5038427;28;20492;-73
2022/01/05 04:15:24;;;;;;;35.38;20.65;;;;;;;;;;5039642;28;20013;-73
2022/01/05 04:17:55;;;;;;;36.65;22.38;;;;;;;;;;5037911;28;20025;-73
2022/01/05 04:20:22;;;;;;;41.33;19.85;;;;;;;;;;5021271;28;20102;-73
2022/01/05 04:22:52;;;;;;;49.55;27.20;;;;;;;;;;5038105;28;20029;-73
2022/01/05 04:25:19;;;;;;;62.75;35.33;;;;;;;;;;5020652;28;20430;-73
2022/01/05 04:27:47;;;;;;;62.25;32.25;;;;;;;;;;5036886;28;20021;-73
2022/01/05 04:30:30;;;;;;;63.03;35.83;;;;;;;;;;5030980;28;20053;-73
2022/01/05 04:32:57;;;;;;;68.60;35.00;;;;;;;;;;5020784;28;20021;-73
2022/01/05 04:35:26;;;;;;;59.85;35.13;;;;;;;;;;5037033;28;20078;-73
2022/01/05 04:37:53;;;;;;;63.72;32.20;;;;;;;;;;5021160;28;20185;-73
2022/01/05 04:40:22;;;;;;;56.70;32.35;;;;;;;;;;5035862;28;20487;-73
2022/01/05 04:42:54;;;;;;;54.65;27.45;;;;;;;;;;5018453;28;20452;-73
2022/01/05 04:45:41;;;;;;;56.13;30.30;;;;;;;;;;5017810;28;20038;-73
2022/01/05 04:48:16;;;;;;;51.08;26.60;;;;;;;;;;5036358;28;20041;-74
2022/01/05 04:50:55;;;;;;;63.33;33.23;;;;;;;;;;5020359;28;20423;-74
2022/01/05 04:54:02;;;;;;;59.28;29.25;;;;;;;;;;5053585;22;20051;-74
2022/01/05 04:56:34;;;;;;;64.40;34.70;;;;;;;;;;5016265;23;20045;-74
2022/01/05 05:01:29;;;;;;;70.63;37.03;;;;;;;;;;5048961;22;20045;-74
2022/01/05 05:04:07;;;;;;;76.78;39.85;;;;;;;;;;5053738;28;20040;-74
2022/01/05 05:09:27;;;;;;;55.38;30.30;;;;;;;;;;5025399;22;20061;-74
2022/01/05 05:12:13;;;;;;;65.72;35.95;;;;;;;;;;4994707;28;20054;-74
2022/01/05 05:14:50;;;;;;;48.80;27.88;;;;;;;;;;4997812;28;20207;-73
2022/01/05 05:17:23;;;;;;;50.75;26.35;;;;;;;;;;5013368;28;20491;-75
2022/01/05 05:20:17;;;;;;;57.00;31.45;;;;;;;;;;5033172;28;20048;-72
2022/01/05 05:22:44;;;;;;;65.03;32.35;;;;;;;;;;5016435;28;20018;-72
2022/01/05 05:25:16;;;;;;;71.50;38.35;;;;;;;;;;5033840;28;20017;-72
2022/01/05 05:28:00;;;;;;;56.85;28.33;;;;;;;;;;5035625;22;20734;-73
2022/01/05 05:30:44;;;;;;;58.92;33.95;;;;;;;;;;5037041;22;20044;-72
2022/01/05 05:33:50;;;;;;;50.03;26.65;;;;;;;;;;4993673;23;20056;-72
2022/01/05 05:36:22;;;;;;;47.92;24.50;;;;;;;;;;5034500;22;20045;-73
2022/01/05 05:41:32;;;;;;;27.42;15.23;;;;;;;;;;5047247;28;20040;-73
2022/01/05 05:44:18;;;;;;;28.77;13.27;;;;;;;;;;5026916;22;20049;-73
2022/01/05 05:46:49;;;;;;;20.63;10.25;;;;;;;;;;5019972;28;20040;-73
2022/01/05 05:49:20;;;;;;;32.65;12.98;;;;;;;;;;5046159;28;20136;-72
2022/01/05 05:51:50;;;;;;;33.85;16.83;;;;;;;;;;5018674;28;20291;-73
2022/01/05 05:54:36;;;;;;;37.90;16.35;;;;;;;;;;5029297;23;20056;-74
2022/01/05 05:57:18;;;;;;;29.58;15.43;;;;;;;;;;5013498;28;20024;-74
2022/01/05 06:00:00;;;;;;;32.42;17.70;;;;;;;;;;5004470;28;20025;-75
2022/01/05 06:02:40;;;;;;;26.48;14.75;;;;;;;;;;5016203;28;20343;-75
2022/01/05 06:05:22;;;;;;;41.63;17.08;;;;;;;;;;5019159;28;20021;-74
2022/01/05 06:07:57;;;;;;;32.63;15.80;;;;;;;;;;5026842;28;20026;-74
2022/01/05 06:10:24;;;;;;;25.88;14.02;;;;;;;;;;5033866;28;20343;-74
2022/01/05 06:13:04;;;;;;;33.17;13.93;;;;;;;;;;5026623;28;20347;-75
2022/01/05 06:15:45;;;;;;;30.50;15.68;;;;;;;;;;5031431;28;20051;-74
2022/01/05 06:18:14;;;;;;;28.92;15.30;;;;;;;;;;5011921;28;20285;-73
2022/01/05 06:20:42;;;;;;;29.38;15.30;;;;;;;;;;5032423;28;20383;-73
2022/01/05 06:23:25;;;;;;;30.98;16.02;;;;;;;;;;5041662;23;20091;-75
2022/01/05 06:26:15;;;;;;;41.35;17.70;;;;;;;;;;5035219;28;20104;-74
2022/01/05 06:29:08;;;;;;;28.60;14.05;;;;;;;;;;5053958;28;20021;-73
2022/01/05 06:31:41;;;;;;;26.25;14.57;;;;;;;;;;5045777;28;20063;-73
2022/01/05 06:34:11;;;;;;;30.85;14.43;;;;;;;;;;5032678;28;20215;-74
2022/01/05 06:36:39;;;;;;;21.58;12.57;;;;;;;;;;5037002;28;20056;-73
2022/01/05 06:39:11;;;;;;;17.00;10.70;;;;;;;;;;5036242;28;20477;-74
2022/01/05 06:41:57;;;;;;;17.33;10.70;;;;;;;;;;5037163;28;20056;-73
2022/01/05 06:44:32;;;;;;;14.48;8.40;;;;;;;;;;5053651;28;20021;-73
2022/01/05 06:47:05;;;;;;;17.50;9.70;;;;;;;;;;5032795;28;20044;-73
2022/01/05 06:49:32;;;;;;;16.17;9.45;;;;;;;;;;5054732;28;20017;-73
2022/01/05 06:51:59;;;;;;;16.13;10.57;;;;;;;;;;5032061;28;20484;-74
2022/01/05 06:54:29;;;;;;;17.15;10.90;;;;;;;;;;5034889;28;20017;-74
2022/01/05 06:57:11;;;;;;;18.70;12.23;;;;;;;;;;5032246;28;20021;-73
2022/01/05 06:59:40;;;;;;;22.83;13.57;;;;;;;;;;5051617;28;20065;-73
2022/01/05 07:02:07;;;;;;;17.58;11.90;;;;;;;;;;5051920;28;20048;-72
2022/01/05 07:04:38;;;;;;;24.23;13.68;;;;;;;;;;5047396;22;20469;-73
2022/01/05 07:07:14;;;;;;;;;;;;;;;;;;5031865;28;20036;-75
2022/01/05 07:10:20;;;;;;;19.02;13.05;;;;;;;;;;5039492;23;20311;-73
2022/01/05 07:13:05;;;;;;;19.80;12.25;;;;;;;;;;4986831;28;20046;-73
2022/01/05 07:15:35;;;;;;;23.23;12.88;;;;;;;;;;4999905;28;20151;-73
2022/01/05 07:18:04;;;;;;;38.00;13.13;;;;;;;;;;5016666;28;20049;-73
2022/01/05 07:20:32;;;;;;;20.02;11.68;;;;;;;;;;5001325;28;20029;-73
2022/01/05 07:23:02;;;;;;;20.45;10.88;;;;;;;;;;4998817;28;20121;-73
2022/01/05 07:25:40;;;;;;;19.35;11.98;;;;;;;;;;5010288;28;20077;-73
2022/01/05 07:28:06;;;;;;;14.70;9.02;;;;;;;;;;4999423;28;20021;-73
2022/01/05 07:30:33;;;;;;;16.17;8.68;;;;;;;;;;5000784;28;20308;-73
2022/01/05 07:33:20;;;;;;;16.25;9.90;;;;;;;;;;5027881;28;20033;-72
2022/01/05 07:35:48;;;;;;;16.70;9.27;;;;;;;;;;5001580;28;20033;-74
2022/01/05 07:38:16;;;;;;;19.08;11.57;;;;;;;;;;5015265;28;20075;-75
2022/01/05 07:40:44;;;;;;;22.52;12.50;;;;;;;;;;5000469;28;20022;-74
2022/01/05 07:43:10;;;;;;;16.75;10.32;;;;;;;;;;5016943;28;20021;-73
2022/01/05 07:45:38;;;;;;;19.20;10.02;;;;;;;;;;5034652;28;20104;-74
2022/01/05 07:48:06;;;;;;;21.50;11.27;;;;;;;;;;5017664;28;20018;-74
2022/01/05 07:50:33;;;;;;;21.80;11.18;;;;;;;;;;5017663;28;20037;-73
2022/01/05 07:53:04;;;;;;;23.98;12.75;;;;;;;;;;5001913;28;20024;-73
2022/01/05 07:55:32;;;;;;;21.65;13.65;;;;;;;;;;5002179;28;20423;-73
2022/01/05 07:57:59;;;;;;;23.70;12.65;;;;;;;;;;5002247;28;20104;-73
2022/01/05 08:00:27;;;;;;;21.67;12.82;;;;;;;;;;5016979;28;20067;-73
2022/01/05 08:02:54;;;;;;;28.08;14.25;;;;;;;;;;5002063;28;20071;-73
2022/01/05 08:05:22;;;;;;;25.40;13.02;;;;;;;;;;5034813;28;20049;-74
2022/01/05 08:07:50;;;;;;;24.77;12.07;;;;;;;;;;5017752;28;20108;-74
2022/01/05 08:10:17;;;;;;;21.88;15.02;;;;;;;;;;5017557;28;20033;-73
2022/01/05 08:12:45;;;;;;;23.50;15.85;;;;;;;;;;5021513;28;20028;-73
2022/01/05 08:15:15;;;;;;;29.77;14.57;;;;;;;;;;5021514;28;20021;-74
2022/01/05 08:17:42;;;;;;;26.65;14.60;;;;;;;;;;5005747;28;20025;-73
2022/01/05 08:20:13;;;;;;;27.38;15.27;;;;;;;;;;5038237;28;20435;-74
2022/01/05 08:22:43;;;;;;;23.02;14.82;;;;;;;;;;5005281;28;20022;-73
2022/01/05 08:25:14;;;;;;;23.50;16.02;;;;;;;;;;5021453;28;20021;-73
2022/01/05 08:27:46;;;;;;;28.08;16.08;;;;;;;;;;5005311;28;20017;-74
2022/01/05 08:30:17;;;;;;;27.75;15.32;;;;;;;;;;5005425;28;20028;-74
2022/01/05 08:32:43;;;;;;;27.42;15.18;;;;;;;;;;5005237;28;20432;-73
2022/01/05 08:35:11;;;;;;;25.13;14.80;;;;;;;;;;5021843;28;20029;-73
2022/01/05 08:37:44;;;;;;;26.83;13.95;;;;;;;;;;5020362;28;20108;-74
2022/01/05 08:40:20;;;;;;;42.75;21.33;;;;;;;;;;5020933;28;20053;-73
2022/01/05 08:42:50;;;;;;;26.00;17.35;;;;;;;;;;5020965;28;20028;-73
2022/01/05 08:45:19;;;;;;;25.65;16.23;;;;;;;;;;5001941;28;20331;-73
2022/01/05 08:47:49;;;;;;;22.50;15.75;;;;;;;;;;5019835;28;20382;-73
2022/01/05 08:50:17;;;;;;;22.98;16.50;;;;;;;;;;5037393;28;20100;-73
2022/01/05 08:52:48;;;;;;;32.67;18.90;;;;;;;;;;5004400;28;20021;-73
2022/01/05 08:55:17;;;;;;;52.35;30.73;;;;;;;;;;5018800;28;20021;-73
2022/01/05 08:57:44;;;;;;;58.30;31.38;;;;;;;;;;5003627;28;20536;-73
2022/01/05 09:00:11;;;;;;;74.93;38.10;;;;;;;;;;5038042;28;20323;-74
2022/01/05 09:02:38;;;;;;;39.55;23.08;;;;;;;;;;5038337;28;20128;-73
2022/01/05 09:05:06;;;;;;;56.45;33.20;;;;;;;;;;5020297;28;20057;-73
2022/01/05 09:07:38;;;;;;;53.25;29.38;;;;;;;;;;5019955;28;20029;-74
2022/01/05 09:10:08;;;;;;;58.08;32.55;;;;;;;;;;5004809;28;20029;-73
2022/01/05 09:12:37;;;;;;;61.40;34.60;;;;;;;;;;5002739;28;20055;-73
2022/01/05 09:15:04;;;;;;;49.42;30.35;;;;;;;;;;5004852;28;20025;-72
2022/01/05 09:17:31;;;;;;;50.78;29.50;;;;;;;;;;5020692;28;20025;-72
2022/01/05 09:19:57;;;;;;;52.00;31.17;;;;;;;;;;5020513;28;20018;-72
2022/01/05 09:22:24;;;;;;;57.05;29.38;;;;;;;;;;5019260;28;20032;-73
2022/01/05 09:24:50;;;;;;;56.67;30.25;;;;;;;;;;5021146;28;20029;-72
2022/01/05 09:27:17;;;;;;;56.90;30.55;;;;;;;;;;5038343;28;20037;-72
2022/01/05 09:29:43;;;;;;;46.15;26.83;;;;;;;;;;5020832;28;20026;-72
2022/01/05 09:32:09;;;;;;;55.33;29.10;;;;;;;;;;5004050;28;20107;-71
2022/01/05 09:34:39;;;;;;;48.20;29.38;;;;;;;;;;5004747;28;20335;-72
2022/01/05 09:37:31;;;;;;;79.07;28.08;;;;;;;;;;5018480;28;20442;-73
2022/01/05 09:42:40;;;;;;;57.55;28.95;;;;;;;;;;5005642;28;20030;-72
2022/01/05 09:45:27;;;;;;;55.58;29.23;;;;;;;;;;5004522;28;20027;-72
2022/01/05 09:48:10;;;;;;;54.13;27.42;;;;;;;;;;5020772;28;20017;-72
2022/01/05 09:50:45;;;;;;;51.53;26.08;;;;;;;;;;5020437;28;20391;-72
2022/01/05 09:53:13;;;;;;;60.17;26.92;;;;;;;;;;5020101;28;20028;-72
2022/01/05 09:55:40;;;;;;;58.53;29.25;;;;;;;;;;5037155;28;20040;-72
2022/01/05 09:58:08;;;;;;;53.10;27.73;;;;;;;;;;5020508;28;20060;-73
2022/01/05 10:00:34;;;;;;;55.65;29.67;;;;;;;;;;5020163;28;20021;-72
2022/01/05 10:03:00;;;;;;;69.35;29.40;;;;;;;;;;5037723;28;20112;-72
2022/01/05 10:05:28;;;;;;;53.60;29.23;;;;;;;;;;5020335;28;20052;-73
2022/01/05 10:07:54;;;;;;;48.20;29.25;;;;;;;;;;5019816;28;20025;-72
2022/01/05 10:10:20;;;;;;;49.97;29.25;;;;;;;;;;5020426;28;20099;-72
2022/01/05 10:12:46;;;;;;;57.67;33.63;;;;;;;;;;5020016;28;20108;-72
2022/01/05 10:15:13;;;;;;;64.47;31.67;;;;;;;;;;5019915;28;20442;-72
2022/01/05 10:17:40;;;;;;;55.65;32.55;;;;;;;;;;5019954;28;20404;-72
2022/01/05 10:20:07;;;;;;;51.78;26.77;;;;;;;;;;5037434;28;20447;-72
2022/01/05 10:22:33;;;;;;;55.38;30.55;;;;;;;;;;5037696;28;20032;-72
2022/01/05 10:25:02;;;;;;;58.75;33.03;;;;;;;;;;5019373;28;20040;-71
2022/01/05 10:27:29;;;;;;;64.15;31.33;;;;;;;;;;5003285;28;20025;-72
2022/01/05 10:29:57;;;;;;;59.63;31.42;;;;;;;;;;5019833;28;20032;-72
2022/01/05 10:32:25;;;;;;;59.67;33.95;;;;;;;;;;5002912;28;20095;-72
2022/01/05 10:35:08;;;;;;;67.47;35.60;;;;;;;;;;5003335;28;20021;-72
2022/01/05 10:37:35;;;;;;;58.40;32.30;;;;;;;;;;5036898;28;20025;-72
2022/01/05 10:40:09;;;;;;;59.30;28.60;;;;;;;;;;5018015;28;20022;-74
2022/01/05 10:42:36;;;;;;;54.85;28.75;;;;;;;;;;5003302;28;20107;-72
2022/01/05 10:45:05;;;;;;;58.25;28.65;;;;;;;;;;5036775;28;20435;-72
2022/01/05 10:47:36;;;;;;;60.95;27.95;;;;;;;;;;5019685;28;20300;-73
2022/01/05 10:50:06;;;;;;;47.13;22.38;;;;;;;;;;5017159;28;20206;-73
2022/01/05 10:52:36;;;;;;;41.42;22.95;;;;;;;;;;5003290;28;20435;-73
2022/01/05 10:55:12;;;;;;;73.10;37.50;;;;;;;;;;5002886;28;20116;-72
2022/01/05 10:57:38;;;;;;;57.20;29.38;;;;;;;;;;5019075;28;20026;-72
2022/01/05 11:00:06;;;;;;;55.22;27.15;;;;;;;;;;5018926;28;20028;-72
2022/01/05 11:02:33;;;;;;;50.10;26.00;;;;;;;;;;5019303;28;20045;-72
2022/01/05 11:04:59;;;;;;;52.97;28.27;;;;;;;;;;5019441;28;20083;-72
2022/01/05 11:07:31;;;;;;;57.85;28.75;;;;;;;;;;5018552;28;20028;-72
2022/01/05 11:09:59;;;;;;;59.40;31.70;;;;;;;;;;5036636;28;20029;-72
2022/01/05 11:12:32;;;;;;;51.97;27.83;;;;;;;;;;5036285;28;20079;-72
2022/01/05 11:15:16;;;;;;;64.88;31.88;;;;;;;;;;5018938;28;20018;-72
2022/01/05 11:18:02;;;;;;;66.63;29.55;;;;;;;;;;5002941;28;20037;-72
2022/01/05 11:20:28;;;;;;;50.83;29.15;;;;;;;;;;5018332;28;20125;-72
2022/01/05 11:22:55;;;;;;;60.00;33.38;;;;;;;;;;5003129;28;20026;-72
2022/01/05 11:25:21;;;;;;;67.80;34.25;;;;;;;;;;5036395;28;20410;-72
2022/01/05 11:27:48;;;;;;;66.05;33.03;;;;;;;;;;5019421;28;20403;-72
2022/01/05 11:30:14;;;;;;;54.47;30.95;;;;;;;;;;5018925;28;20029;-73
2022/01/05 11:32:41;;;;;;;74.35;36.33;;;;;;;;;;5002789;28;20022;-72
2022/01/05 11:35:07;;;;;;;70.97;33.90;;;;;;;;;;5036693;28;20056;-72
2022/01/05 11:37:36;;;;;;;70.60;36.83;;;;;;;;;;5018830;28;20442;-73
2022/01/05 11:40:05;;;;;;;84.72;41.70;;;;;;;;;;5002923;28;20022;-72
2022/01/05 11:42:34;;;;;;;78.78;42.15;;;;;;;;;;5002617;28;20021;-73
2022/01/05 11:45:00;;;;;;;88.93;44.30;;;;;;;;;;5002227;28;20029;-73
2022/01/05 11:47:28;;;;;;;98.50;47.28;;;;;;;;;;5022077;28;20026;-72
2022/01/05 11:50:15;;;;;;;92.25;49.67;;;;;;;;;;5006489;28;20491;-72
2022/01/05 11:53:01;;;;;;;104.55;50.67;;;;;;;;;;5022222;28;20040;-72
2022/01/05 11:55:28;;;;;;;85.50;46.97;;;;;;;;;;5022453;28;20025;-72
2022/01/05 11:58:12;;;;;;;102.57;48.78;;;;;;;;;;5022711;28;20025;-72
2022/01/05 12:00:40;;;;;;;88.00;46.25;;;;;;;;;;5006529;28;20083;-72
2022/01/05 12:03:06;;;;;;;107.57;51.85;;;;;;;;;;5040339;28;20028;-72
2022/01/05 12:05:51;;;;;;;111.53;51.85;;;;;;;;;;5022746;28;20344;-72
2022/01/05 12:08:35;;;;;;;103.00;52.78;;;;;;;;;;5022503;28;20025;-72
2022/01/05 12:11:06;;;;;;;90.20;45.85;;;;;;;;;;5039967;28;20075;-72
2022/01/05 12:13:36;;;;;;;80.35;44.22;;;;;;;;;;5006187;28;20033;-72
2022/01/05 12:16:04;;;;;;;76.70;42.45;;;;;;;;;;5005933;28;20052;-72
2022/01/05 12:18:30;;;;;;;87.07;42.63;;;;;;;;;;5040010;28;20028;-72
2022/01/05 12:20:57;;;;;;;93.55;44.50;;;;;;;;;;5039798;28;20378;-72
2022/01/05 12:23:25;;;;;;;82.82;48.00;;;;;;;;;;5039821;28;20021;-72
2022/01/05 12:28:39;;;;;;;97.00;47.78;;;;;;;;;;5039612;28;20067;-72
2022/01/05 12:31:09;;;;;;;126.32;60.28;;;;;;;;;;5039325;28;20033;-72
2022/01/05 12:33:51;;;;;;;113.35;56.85;;;;;;;;;;5022772;28;20021;-72
2022/01/05 12:36:34;;;;;;;108.45;56.03;;;;;;;;;;5004839;28;20029;-72
2022/01/05 12:39:01;;;;;;;109.53;59.60;;;;;;;;;;5038265;28;20025;-72
2022/01/05 12:41:33;;;;;;;110.90;56.60;;;;;;;;;;5021218;28;20071;-72
2022/01/05 12:44:00;;;;;;;112.07;54.83;;;;;;;;;;5021831;28;20018;-72
2022/01/05 12:46:33;;;;;;;110.28;54.40;;;;;;;;;;5021907;28;20048;-72
2022/01/05 12:48:59;;;;;;;110.57;53.42;;;;;;;;;;5005355;28;20408;-72
2022/01/05 12:51:33;;;;;;;88.30;47.38;;;;;;;;;;5021369;28;20343;-72
2022/01/05 12:54:02;;;;;;;69.05;39.55;;;;;;;;;;5039248;28;20037;-72
2022/01/05 12:56:46;;;;;;;67.70;36.60;;;;;;;;;;5038403;28;20021;-72
2022/01/05 12:59:15;;;;;;;75.95;41.83;;;;;;;;;;5021117;28;20044;-72
2022/01/05 13:01:44;;;;;;;84.78;45.83;;;;;;;;;;5004866;28;20481;-72
2022/01/05 13:04:13;;;;;;;87.13;47.95;;;;;;;;;;5021162;28;20041;-72
2022/01/05 13:06:41;;;;;;;85.15;46.60;;;;;;;;;;5020483;28;20173;-72
2022/01/05 13:09:12;;;;;;;91.32;50.15;;;;;;;;;;5021273;28;20057;-72
2022/01/05 13:11:45;;;;;;;86.63;47.72;;;;;;;;;;5021239;28;20034;-74
2022/01/05 13:14:14;;;;;;;75.75;46.88;;;;;;;;;;5004937;28;20017;-72
2022/01/05 13:16:53;;;;;;;81.60;47.08;;;;;;;;;;5020690;28;20021;-73
2022/01/05 13:19:33;;;;;;;75.00;42.70;;;;;;;;;;5003279;28;20017;-72
2022/01/05 13:22:03;;;;;;;78.20;43.65;;;;;;;;;;5005032;28;20116;-72
2022/01/05 13:24:42;;;;;;;77.90;47.30;;;;;;;;;;5003332;28;20037;-72
2022/01/05 13:27:08;;;;;;;98.47;53.75;;;;;;;;;;5000027;28;20120;-72
2022/01/05 13:29:36;;;;;;;95.53;54.10;;;;;;;;;;5038380;28;20495;-72
2022/01/05 13:32:04;;;;;;;89.57;53.53;;;;;;;;;;5020442;28;20029;-72
2022/01/05 13:34:41;;;;;;;91.30;51.53;;;;;;;;;;5020793;28;20017;-73
2022/01/05 13:37:10;;;;;;;81.43;46.07;;;;;;;;;;5020379;28;20506;-72
2022/01/05 13:39:40;;;;;;;73.60;39.40;;;;;;;;;;5038268;28;20021;-73
2022/01/05 13:42:20;;;;;;;55.08;34.35;;;;;;;;;;5038517;28;20116;-72
2022/01/05 13:44:48;;;;;;;62.28;35.40;;;;;;;;;;5020780;28;20108;-72
2022/01/05 13:47:16;;;;;;;63.10;36.20;;;;;;;;;;5038407;28;20044;-73
2022/01/05 13:50:02;;;;;;;70.93;36.17;;;;;;;;;;5038214;28;20056;-72
2022/01/05 13:52:28;;;;;;;61.67;33.55;;;;;;;;;;5020164;28;20041;-72
2022/01/05 13:54:54;;;;;;;62.08;33.55;;;;;;;;;;5020282;28;20025;-72
2022/01/05 13:57:36;;;;;;;69.85;38.03;;;;;;;;;;5019834;28;20036;-72
2022/01/05 14:00:10;;;;;;;66.82;33.13;;;;;;;;;;5001350;28;20025;-72
2022/01/05 14:02:37;;;;;;;58.08;34.63;;;;;;;;;;5003884;28;20057;-72
2022/01/05 14:05:04;;;;;;;62.40;34.78;;;;;;;;;;5037752;28;20407;-73
2022/01/05 14:07:30;;;;;;;65.53;34.20;;;;;;;;;;5004079;28;20363;-72
2022/01/05 14:10:10;;;;;;;65.03;36.40;;;;;;;;;;5003582;28;20128;-72
2022/01/05 14:12:38;;;;;;;63.63;35.40;;;;;;;;;;5019886;28;20037;-72
2022/01/05 14:15:05;;;;;;;63.25;32.25;;;;;;;;;;5037501;28;20021;-73
2022/01/05 14:17:31;;;;;;;58.40;34.08;;;;;;;;;;5020315;28;20017;-72
2022/01/05 14:20:13;;;;;;;58.75;31.08;;;;;;;;;;5003809;28;20041;-72
2022/01/05 14:22:40;;;;;;;59.63;30.92;;;;;;;;;;5003552;28;20032;-73
2022/01/05 14:25:07;;;;;;;52.92;29.65;;;;;;;;;;5020043;28;20087;-72
2022/01/05 14:27:37;;;;;;;55.95;30.90;;;;;;;;;;5020292;28;20392;-72
2022/01/05 14:30:06;;;;;;;54.78;30.00;;;;;;;;;;5019113;28;20336;-72
2022/01/05 14:32:34;;;;;;;53.25;29.42;;;;;;;;;;5003463;28;20048;-72
2022/01/05 14:35:04;;;;;;;61.25;28.30;;;;;;;;;;5037276;28;20071;-72
2022/01/05 14:37:30;;;;;;;42.45;23.83;;;;;;;;;;5037006;28;20045;-72
2022/01/05 14:39:57;;;;;;;40.15;23.25;;;;;;;;;;5003498;28;20139;-72
2022/01/05 14:42:27;;;;;;;34.47;20.48;;;;;;;;;;5037344;28;20025;-72
2022/01/05 14:44:53;;;;;;;;;;;;;;;;;;5003730;28;20435;-73
2022/01/05 14:47:31;;;;;;;38.78;20.23;;;;;;;;;;5019315;28;19905;-72
2022/01/05 14:49:59;;;;;;;31.93;18.77;;;;;;;;;;5003535;28;20021;-72